Taasinge Maersk — OUSX2 — position and weather

sailwx.info

Track history (hours):
 
Tides and Currents Weather Stations Pressure Air Temp Water Temp Dewpoint Dewpoint Depression Visibility Wind Speed Wind Dir Waves Ship Positions

Taasinge Maersk

Last reported at 2017-Feb-20 11:03 UTC. Time now 2017-Feb-24 05:55 UTC.
Position N 28°31' W 013°16'.

Length 191 m; draft 10.1 m.

Type: Cargo ship. MMSI: 220157000.

Date/timePositionNaut miles runAvg speedWind from/ knotsBaromVisibWave heightAir tempDewpointWater temp
2017-Feb-20 11:03N 28°31' W 013°16'57615.3
2017-Feb-18 21:27N 35°52' W 005°59'1212.9
2017-Feb-18 20:29N 35°57' W 005°45'1213.1
2017-Feb-18 19:33N 35°59' W 005°30'1110.8
2017-Feb-18 18:34N 36°08' W 005°24'2 1.6
2017-Feb-18 17:33N 36°08' W 005°26'0 0.0
2017-Feb-18 16:33N 36°08' W 005°26'0 0.0
2017-Feb-18 15:33N 36°08' W 005°26'0 0.0
2017-Feb-18 14:33N 36°08' W 005°26'0 0.0
2017-Feb-18 13:33N 36°08' W 005°26'0 0.0
2017-Feb-18 12:32N 36°08' W 005°26'0 0.0
2017-Feb-18 11:32N 36°08' W 005°26'0 0.0
2017-Feb-18 10:29N 36°08' W 005°26'0 0.0
2017-Feb-18 09:32N 36°08' W 005°26'0 0.0
2017-Feb-18 08:32N 36°08' W 005°26'0 0.0
2017-Feb-18 07:32N 36°08' W 005°26'1 1.0
2017-Feb-18 06:33N 36°09' W 005°26'7 7.3
2017-Feb-18 05:33N 36°02' W 005°22'1110.6
2017-Feb-18 04:34N 35°54' W 005°30'1 0.7
2017-Feb-18 03:30N 35°53' W 005°30'0 0.0
2017-Feb-18 02:27N 35°53' W 005°30'0 0.0
2017-Feb-18 01:33N 35°53' W 005°30'0 0.0
2017-Feb-18 00:32N 35°53' W 005°30'0 0.0
2017-Feb-17 23:33N 35°53' W 005°30'0 0.0
2017-Feb-17 22:32N 35°53' W 005°30'0 0.0
2017-Feb-17 21:29N 35°53' W 005°30'0 0.0
2017-Feb-17 20:32N 35°53' W 005°30'0 0.0
2017-Feb-17 19:33N 35°53' W 005°30'0 0.0
2017-Feb-17 18:33N 35°53' W 005°30'0 0.0
2017-Feb-17 17:32N 35°53' W 005°30'0 0.0
2017-Feb-17 16:29N 35°53' W 005°30'0 0.0
2017-Feb-17 15:27N 35°53' W 005°30'0 0.0
2017-Feb-17 14:32N 35°53' W 005°30'0 0.0
2017-Feb-17 13:23N 35°53' W 005°30'0 0.0
2017-Feb-17 12:27N 35°53' W 005°30'0 0.0
2017-Feb-17 11:33N 35°53' W 005°30'3 0.2
2017-Feb-16 23:26N 35°55' W 005°33'3 3.5
2017-Feb-16 22:33N 35°58' W 005°33'6 5.9
2017-Feb-16 21:33N 35°59' W 005°26'7 7.0
2017-Feb-16 20:33N 36°01' W 005°18'  
Track history (hours):
 
Tides and Currents Weather Stations Pressure Air Temp Water Temp Dewpoint Dewpoint Depression Visibility Wind Speed Wind Dir Waves Ship Positions

Taasinge Maersk

Last reported at 2017-Feb-20 11:03 UTC. Time now 2017-Feb-24 05:55 UTC.
Position N 28°31' W 013°16'.

Length 191 m; draft 10.1 m.

Type: Cargo ship. MMSI: 220157000.

Date/timePositionNaut miles runAvg speedWind from/ knotsBaromVisibWave heightAir tempDewpointWater temp
2017-Feb-20 11:03N 28°31' W 013°16'57615.3
2017-Feb-18 21:27N 35°52' W 005°59'1212.9
2017-Feb-18 20:29N 35°57' W 005°45'1213.1
2017-Feb-18 19:33N 35°59' W 005°30'1110.8
2017-Feb-18 18:34N 36°08' W 005°24'2 1.6
2017-Feb-18 17:33N 36°08' W 005°26'0 0.0
2017-Feb-18 16:33N 36°08' W 005°26'0 0.0
2017-Feb-18 15:33N 36°08' W 005°26'0 0.0
2017-Feb-18 14:33N 36°08' W 005°26'0 0.0
2017-Feb-18 13:33N 36°08' W 005°26'0 0.0
2017-Feb-18 12:32N 36°08' W 005°26'0 0.0
2017-Feb-18 11:32N 36°08' W 005°26'0 0.0
2017-Feb-18 10:29N 36°08' W 005°26'0 0.0
2017-Feb-18 09:32N 36°08' W 005°26'0 0.0
2017-Feb-18 08:32N 36°08' W 005°26'0 0.0
2017-Feb-18 07:32N 36°08' W 005°26'1 1.0
2017-Feb-18 06:33N 36°09' W 005°26'7 7.3
2017-Feb-18 05:33N 36°02' W 005°22'1110.6
2017-Feb-18 04:34N 35°54' W 005°30'1 0.7
2017-Feb-18 03:30N 35°53' W 005°30'0 0.0
2017-Feb-18 02:27N 35°53' W 005°30'0 0.0
2017-Feb-18 01:33N 35°53' W 005°30'0 0.0
2017-Feb-18 00:32N 35°53' W 005°30'0 0.0
2017-Feb-17 23:33N 35°53' W 005°30'0 0.0
2017-Feb-17 22:32N 35°53' W 005°30'0 0.0
2017-Feb-17 21:29N 35°53' W 005°30'0 0.0
2017-Feb-17 20:32N 35°53' W 005°30'0 0.0
2017-Feb-17 19:33N 35°53' W 005°30'0 0.0
2017-Feb-17 18:33N 35°53' W 005°30'0 0.0
2017-Feb-17 17:32N 35°53' W 005°30'0 0.0
2017-Feb-17 16:29N 35°53' W 005°30'0 0.0
2017-Feb-17 15:27N 35°53' W 005°30'0 0.0
2017-Feb-17 14:32N 35°53' W 005°30'0 0.0
2017-Feb-17 13:23N 35°53' W 005°30'0 0.0
2017-Feb-17 12:27N 35°53' W 005°30'0 0.0
2017-Feb-17 11:33N 35°53' W 005°30'3 0.2
2017-Feb-16 23:26N 35°55' W 005°33'3 3.5
2017-Feb-16 22:33N 35°58' W 005°33'6 5.9
2017-Feb-16 21:33N 35°59' W 005°26'7 7.0
2017-Feb-16 20:33N 36°01' W 005°18'  

Dump ship's entire track history